Station: Ivanhoe Airport  

  Atmospheric Gas Attenuation - ITU Rec 676-11   ----------------- dB/100km -----------------
Date Time Temp RH % AH g/m3 Dew Point Wind Direction Speed kph Gust kph Barometer mB Rainfall Since 9am 24GHz 47GHz 76GHz 122GHz 134GHz 241GHz
08/05 12:30 16.6 60 8.48 8.8 20 30 1026.3 0 19.2 25.4 38.5 100.9 94.4 324.8
08/05 12:20 17.1 60 8.73 9.3 19 22 1026.7 0 19.7 25.7 39.3 102.9 97.0 334.0
08/05 12:10 16.4 62 8.65 9.1 15 17 1027 0 19.6 25.7 39.3 103.0 96.9 333.5
08/05 12:00 15.3 64 8.36 8.5 19 30 1027.1 0 19.0 25.6 38.7 101.4 94.5 324.9
08/05 11:50 15.3 65 8.49 8.8 17 28 1027.5 0 19.3 25.8 39.2 102.8 96.2 330.9
08/05 11:40 15.2 64 8.31 8.4 19 24 1027.6 0 18.9 25.6 38.6 101.0 94.0 323.2
08/05 11:30 14.7 65 8.18 8.2 19 30 1027.6 0 18.6 25.5 38.3 100.3 92.9 319.3
08/05 11:20 15 67 8.59 8.9 19 26 1027.8 0 19.5 26.1 39.8 104.3 97.9 336.9
08/05 11:10 14.1 68 8.25 8.3 13 19 1028 0 18.8 25.8 38.9 101.8 94.6 325.1
08/05 11:00 14.1 66 8.01 7.9 20 32 1028 0 18.3 25.4 38.0 99.3 91.5 314.1
08/05 10:50 14 67 8.08 8 26 30 1028.1 0 18.5 25.6 38.3 100.2 92.5 317.7
08/05 10:40 14 67 8.08 8 32 37 1028.1 0 18.5 25.6 38.3 100.2 92.5 317.7
08/05 10:30 14.1 67 8.13 8.1 28 39 1028 0 18.6 25.6 38.4 100.6 93.0 319.6
08/05 10:20 14.1 67 8.13 8.1 20 30 1028.2 0 18.6 25.6 38.4 100.6 93.1 319.6
08/05 10:10 14.1 67 8.13 8.1 26 35 1028.2 0 18.6 25.6 38.4 100.6 93.1 319.6
08/05 10:00 13.8 69 8.22 8.2 22 35 1028 0 18.8 25.8 38.9 101.9 94.6 324.9
08/05 09:50 12.9 70 7.89 7.6 28 32 1028.2 0 18.1 25.6 38.1 99.6 91.3 313.4
08/05 09:40 13.7 69 8.17 8.1 17 20 1028.3 0 18.7 25.8 38.8 101.5 94.1 323.1
08/05 09:30 12.4 71 7.76 7.3 22 33 1028.2 0 17.8 25.5 37.8 98.8 90.2 309.4
08/05 09:20 12.3 72 7.82 7.4 22 30 1028.2 0 18.0 25.6 38.1 99.6 91.1 312.6
08/05 09:10 12.3 72 7.82 7.4 20 24 1028.2 0 18.0 25.6 38.1 99.6 91.1 312.6
08/05 09:00 12.2 72 7.77 7.3 17 30 1028 0 17.9 25.6 37.9 99.1 90.5 310.6
08/05 08:50 11.8 73 7.68 7.1 15 19 1027.8 0 17.7 25.5 37.7 98.7 89.8 307.9
08/05 08:40 11.4 74 7.6 6.9 17 26 1027.8 0 17.6 25.5 37.6 98.3 89.2 305.8
08/05 08:30 11.2 75 7.6 6.9 15 22 1027.6 0 17.6 25.6 37.7 98.5 89.4 306.5
08/05 08:20 10.4 76 7.33 6.4 15 19 1027.6 0 17.0 25.3 37.0 96.6 86.7 297.0
08/05 08:10 9.8 77 7.15 6 13 13 1027.6 0 16.7 25.2 36.5 95.4 85.0 290.8
08/05 08:00 9.4 78 7.06 5.8 13 19 1027.5 0 16.5 25.2 36.3 94.9 84.2 288.0
08/05 07:50 9 79 6.97 5.6 11 13 1027.3 0 16.3 25.1 36.1 94.4 83.4 285.2
08/05 07:40 8.5 80 6.83 5.3 13 15 1027.3 0 16.0 25.1 35.8 93.4 82.1 280.4
08/05 07:30 8.2 81 6.79 5.1 11 15 1027 0 16.0 25.1 35.7 93.3 81.8 279.5
08/05 07:20 8.1 82 6.83 5.2 7 9 1027.2 0 16.0 25.2 36.0 93.9 82.5 281.8
08/05 07:10 8.1 82 6.83 5.2 11 13 1027.2 0 16.0 25.2 36.0 93.9 82.5 281.8
08/05 07:00 8.1 82 6.83 5.2 11 17 1027 0 16.0 25.2 35.9 93.9 82.5 281.8
08/05 06:50 8.1 81 6.74 5 9 11 1027.1 0 15.9 25.0 35.6 92.9 81.3 277.6
08/05 06:40 8.1 81 6.74 5 11 13 1027.1 0 15.9 25.0 35.6 92.9 81.3 277.6
08/05 06:30 7.8 82 6.7 4.9 11 17 1027 0 15.8 25.0 35.6 92.8 81.0 276.7
08/05 06:20 7.6 81 6.53 4.6 9 11 1027.1 0 15.4 24.8 35.0 91.2 79.0 269.4
08/05 06:10 7.5 79 6.33 4.1 11 11 1027 0 15.0 24.5 34.2 89.2 76.4 260.4
08/05 06:00 7.7 78 6.33 4.1 11 15 1026.9 0 15.0 24.4 34.1 88.9 76.2 259.7
08/05 05:50 7.8 78 6.37 4.2 11 13 1026.9 0 15.1 24.5 34.2 89.2 76.6 261.2
08/05 05:40 7.8 77 6.29 4 11 15 1026.9 0 14.9 24.4 33.9 88.4 75.6 257.5
08/05 05:30 7.8 76 6.21 3.8 13 19 1026.7 0 14.7 24.2 33.6 87.5 74.5 253.7
08/05 05:20 7.7 76 6.17 3.7 13 15 1026.9 0 14.6 24.2 33.4 87.2 74.1 252.3
08/05 05:10 7.6 76 6.13 3.6 13 13 1026.7 0 14.6 24.1 33.3 86.9 73.6 250.7
08/05 05:00 7.5 75 6.01 3.4 15 20 1026.7 0 14.3 24.0 32.9 85.7 72.1 245.5
08/05 04:50 7.7 75 6.08 3.6 15 19 1026.7 0 14.5 24.0 33.1 86.2 72.9 248.1
08/05 04:40 7.8 74 6.04 3.5 15 20 1026.6 0 14.4 23.9 32.9 85.7 72.3 245.9
08/05 04:30 7.7 74 6 3.4 15 20 1026.6 0 14.3 23.9 32.8 85.4 71.8 244.4
08/05 04:20 7.8 73 5.96 3.3 13 19 1026.5 0 14.2 23.8 32.6 84.8 71.2 242.2
08/05 04:10 7.8 72 5.88 3.1 15 20 1026.5 0 14.0 23.7 32.2 84.0 70.2 238.5
08/05 04:00 7.8 71 5.8 2.9 15 20 1026.5 0 13.9 23.6 31.9 83.1 69.1 234.9
08/05 03:50 8 70 5.79 2.9 15 19 1026.6 0 13.8 23.5 31.8 82.8 68.8 233.9
08/05 03:40 8.2 69 5.78 2.9 17 19 1026.7 0 13.8 23.4 31.7 82.5 68.5 232.8
08/05 03:30 8.4 68 5.77 2.8 17 24 1026.6 0 13.8 23.4 31.6 82.2 68.2 231.8
08/05 03:20 8.3 66 5.57 2.3 13 17 1026.7 0 13.3 23.1 30.8 80.3 65.7 223.1
08/05 03:10 8.6 66 5.67 2.6 17 22 1026.8 0 13.5 23.2 31.1 81.0 66.8 226.8
08/05 03:00 8.6 65 5.59 2.4 17 24 1026.6 0 13.4 23.0 30.8 80.2 65.7 223.1
08/05 02:50 8.6 65 5.59 2.4 13 15 1026.7 0 13.4 23.0 30.8 80.2 65.7 223.2
08/05 02:40 8.6 64 5.5 2.2 13 17 1026.9 0 13.2 22.9 30.5 79.3 64.6 219.2
08/05 02:30 8.7 64 5.54 2.3 15 22 1026.8 0 13.3 22.9 30.6 79.6 65.0 220.7
08/05 02:20 8.6 63 5.42 2 13 15 1027.1 0 13.0 22.8 30.2 78.5 63.6 215.7
08/05 02:10 8.4 63 5.35 1.8 11 13 1027.2 0 12.9 22.7 30.0 77.9 62.9 213.1
08/05 02:00 8.4 63 5.35 1.8 13 17 1027.2 0 12.9 22.7 30.0 77.9 62.9 213.1
08/05 01:50 8.4 63 5.35 1.8 13 17 1027.3 0 12.9 22.7 30.0 77.9 62.9 213.1
08/05 01:40 7.8 65 5.31 1.6 13 17 1027.3 0 12.8 22.8 30.1 78.1 62.9 213.0
08/05 01:30 7.6 64 5.16 1.2 11 17 1027.3 0 12.5 22.6 29.6 76.8 61.1 206.8
08/05 01:20 7.6 64 5.16 1.2 11 13 1027.4 0 12.5 22.6 29.6 76.8 61.1 206.8
08/05 01:10 7.6 65 5.24 1.5 13 13 1027.4 0 12.7 22.8 29.9 77.6 62.2 210.4
08/05 01:00 7.5 65 5.21 1.4 11 13 1027.3 0 12.6 22.7 29.8 77.4 61.8 209.3
08/05 00:50 7.3 65 5.14 1.2 11 13 1027.3 0 12.5 22.7 29.6 76.9 61.1 206.7
08/05 00:40 7.3 65 5.14 1.2 9 11 1027.3 0 12.5 22.7 29.6 76.9 61.1 206.7
08/05 00:20 6.7 67 5.09 1 9 9 1027.2 0 12.4 22.7 29.6 76.9 60.9 206.0
08/05 00:10 6.7 67 5.09 1 9 11 1027.2 0 12.4 22.7 29.6 76.9 60.9 206.0
08/05 00:00 6.6 67 5.06 0.9 11 11 1027.2 0 12.3 22.7 29.5 76.7 60.6 204.9
07/05 23:50 6.5 67 5.03 0.8 9 11 1027.2 0 12.3 22.7 29.4 76.5 60.3 203.8
07/05 23:40 6.6 66 4.99 0.7 9 9 1027.2 0 12.2 22.6 29.3 76.0 59.7 201.8
07/05 23:30 6.8 66 5.05 0.9 9 13 1027.2 0 12.3 22.7 29.4 76.4 60.3 203.9
07/05 23:20 7 65 5.04 0.9 9 11 1027.2 0 12.3 22.6 29.3 76.1 60.1 203.0
07/05 23:10 7 65 5.04 0.9 9 11 1027.2 0 12.3 22.6 29.3 76.1 60.1 203.0
07/05 23:00 7 65 5.04 0.9 11 13 1027.2 0 12.3 22.6 29.3 76.1 60.1 203.0
07/05 22:50 7.1 64 4.99 0.8 9 9 1027.5 0 12.1 22.5 29.1 75.5 59.4 200.6
07/05 22:40 7.3 63 4.98 0.7 9 11 1027.5 0 12.1 22.4 29.0 75.2 59.1 199.6
07/05 22:30 7.6 62 5 0.8 9 11 1027.5 0 12.2 22.4 28.9 75.2 59.1 199.7
07/05 22:20 7.8 62 5.06 1 9 11 1027.6 0 12.3 22.4 29.1 75.6 59.7 201.9
07/05 22:10 7.7 62 5.03 0.9 11 11 1027.6 0 12.2 22.4 29.0 75.4 59.4 200.8
07/05 22:00 7.8 61 4.98 0.8 9 11 1027.5 0 12.1 22.3 28.8 74.8 58.7 198.4
07/05 21:50 8.1 60 4.99 0.8 9 9 1027.6 0 12.1 22.3 28.7 74.6 58.6 198.1
07/05 21:40 8.1 60 4.99 0.8 9 11 1027.7 0 12.1 22.3 28.7 74.6 58.6 198.1
07/05 21:30 8.3 59 4.97 0.8 9 11 1027.5 0 12.1 22.2 28.6 74.2 58.2 196.7
07/05 21:20 8.4 58 4.92 0.6 9 11 1027.6 0 12.0 22.1 28.4 73.6 57.5 194.3
07/05 21:10 8.8 57 4.96 0.8 7 9 1027.6 0 12.0 22.0 28.4 73.7 57.7 195.1
07/05 21:00 8.9 57 4.99 0.9 11 13 1027.4 0 12.1 22.1 28.4 73.8 58.0 196.1
07/05 20:50 8.8 57 4.96 0.8 9 11 1027.5 0 12.0 22.0 28.4 73.6 57.7 195.0
07/05 20:40 8.9 57 4.99 0.9 9 9 1027.5 0 12.1 22.1 28.5 73.9 58.0 196.1
07/05 20:30 9.1 56 4.97 0.8 9 11 1027.4 0 12.0 22.0 28.3 73.5 57.6 194.7
07/05 20:20 9.2 55 4.91 0.6 9 11 1027.5 0 11.9 21.9 28.1 72.8 56.8 191.9
07/05 20:10 9.5 54 4.92 0.7 9 9 1027.5 0 11.9 21.8 28.0 72.6 56.7 191.6
07/05 20:00 9.7 53 4.89 0.6 9 11 1027.3 0 11.8 21.7 27.8 72.1 56.2 189.8
07/05 19:50 10.1 52 4.92 0.7 7 9 1027.5 0 11.9 21.7 27.8 72.1 56.3 190.2

Last Refresh: 08-May-2026 12:07:30

Bureau of Meteorology